Blean, United Kingdom
Current Conditions -  °F | °C
As of 1:50 AM on Thursday 27 Nov 2014 (Local Time) from EGMC Reporting Station
Haze Haze  
Wind Chill: 11°   Ceiling: 700
Heat Index: 11°   Visibility: 1.2mi
Dew Point: 10°   Wind: 7mph
Humidity: 94%   Direction: 120°ESE
Pressure: 29.68"   Gusts: NA
Location:  51.31°N, 1.04°E
Report Text: EGMC 270150Z 12006KT 2000 BR FEW002 BKN007 OVC014 11/10 Q1005
Loading
Personal Weather Stations






























Interactive Weather Map New forecast layout! Learn more

10-Day Weather Forecast

Advertisements
Track Severe Weather on mobile